sensor_id;sensor_type;location;lat;lon;timestamp;pressure;altitude;pressure_sealevel;temperature;humidity
25238;BME280;13185;50.872;5.306;2022-11-14T00:02:20;101182.06;;;2.67;96.84
25238;BME280;13185;50.872;5.306;2022-11-14T00:05:05;101183.94;;;2.64;96.62
25238;BME280;13185;50.872;5.306;2022-11-14T00:07:50;101194.63;;;2.60;96.53
25238;BME280;13185;50.872;5.306;2022-11-14T00:10:34;101184.22;;;2.53;96.54
25238;BME280;13185;50.872;5.306;2022-11-14T00:13:19;101186.00;;;2.52;97.07
25238;BME280;13185;50.872;5.306;2022-11-14T00:16:03;101175.44;;;2.51;97.16
25238;BME280;13185;50.872;5.306;2022-11-14T00:18:47;101179.88;;;2.49;97.02
25238;BME280;13185;50.872;5.306;2022-11-14T00:21:32;101174.66;;;2.47;97.31
25238;BME280;13185;50.872;5.306;2022-11-14T00:24:16;101179.94;;;2.47;97.09
25238;BME280;13185;50.872;5.306;2022-11-14T00:27:00;101165.00;;;2.45;96.77
25238;BME280;13185;50.872;5.306;2022-11-14T00:29:44;101171.25;;;2.42;96.47
25238;BME280;13185;50.872;5.306;2022-11-14T00:32:29;101167.81;;;2.39;96.35
25238;BME280;13185;50.872;5.306;2022-11-14T00:35:14;101167.94;;;2.34;96.31
25238;BME280;13185;50.872;5.306;2022-11-14T00:37:58;101165.38;;;2.31;96.53
25238;BME280;13185;50.872;5.306;2022-11-14T00:40:42;101160.13;;;2.29;96.52
25238;BME280;13185;50.872;5.306;2022-11-14T00:43:26;101159.31;;;2.26;96.22
25238;BME280;13185;50.872;5.306;2022-11-14T00:46:11;101151.44;;;2.24;96.32
25238;BME280;13185;50.872;5.306;2022-11-14T00:48:55;101144.44;;;2.22;96.02
25238;BME280;13185;50.872;5.306;2022-11-14T00:51:39;101144.50;;;2.20;96.17
25238;BME280;13185;50.872;5.306;2022-11-14T00:54:23;101138.44;;;2.15;96.18
25238;BME280;13185;50.872;5.306;2022-11-14T00:57:09;101133.19;;;2.14;96.32
25238;BME280;13185;50.872;5.306;2022-11-14T00:59:53;101125.28;;;2.12;96.23
25238;BME280;13185;50.872;5.306;2022-11-14T01:02:38;101134.13;;;2.11;96.33
25238;BME280;13185;50.872;5.306;2022-11-14T01:05:24;101129.81;;;2.09;96.21
25238;BME280;13185;50.872;5.306;2022-11-14T01:08:08;101129.00;;;2.05;96.03
25238;BME280;13185;50.872;5.306;2022-11-14T01:10:52;101124.66;;;2.02;95.81
25238;BME280;13185;50.872;5.306;2022-11-14T01:13:37;101131.81;;;1.99;95.86
25238;BME280;13185;50.872;5.306;2022-11-14T01:16:22;101133.63;;;1.95;95.89
25238;BME280;13185;50.872;5.306;2022-11-14T01:19:06;101129.34;;;1.91;95.93
25238;BME280;13185;50.872;5.306;2022-11-14T01:21:50;101124.13;;;1.88;95.90
25238;BME280;13185;50.872;5.306;2022-11-14T01:24:35;101119.78;;;1.86;96.12
25238;BME280;13185;50.872;5.306;2022-11-14T01:27:19;101122.47;;;1.84;96.02
25238;BME280;13185;50.872;5.306;2022-11-14T01:30:04;101124.25;;;1.84;95.90
25238;BME280;13185;50.872;5.306;2022-11-14T01:32:48;101120.75;;;1.82;95.60
25238;BME280;13185;50.872;5.306;2022-11-14T01:35:34;101125.22;;;1.80;95.72
25238;BME280;13185;50.872;5.306;2022-11-14T01:38:19;101119.97;;;1.78;95.68
25238;BME280;13185;50.872;5.306;2022-11-14T01:41:04;101113.88;;;1.74;95.62
25238;BME280;13185;50.872;5.306;2022-11-14T01:43:48;101105.13;;;1.72;95.45
25238;BME280;13185;50.872;5.306;2022-11-14T01:46:36;101106.94;;;1.70;95.51
25238;BME280;13185;50.872;5.306;2022-11-14T01:49:26;101096.44;;;1.67;95.57
25238;BME280;13185;50.872;5.306;2022-11-14T01:52:17;101089.47;;;1.63;95.38
25238;BME280;13185;50.872;5.306;2022-11-14T01:55:06;101087.78;;;1.61;95.43
25238;BME280;13185;50.872;5.306;2022-11-14T01:57:50;101087.81;;;1.59;95.58
25238;BME280;13185;50.872;5.306;2022-11-14T02:00:35;101096.72;;;1.57;95.73
25238;BME280;13185;50.872;5.306;2022-11-14T02:03:19;101088.78;;;1.55;95.57
25238;BME280;13185;50.872;5.306;2022-11-14T02:06:05;101082.72;;;1.52;95.73
25238;BME280;13185;50.872;5.306;2022-11-14T02:08:50;101082.84;;;1.45;95.85
25238;BME280;13185;50.872;5.306;2022-11-14T02:11:39;101087.31;;;1.43;96.05
25238;BME280;13185;50.872;5.306;2022-11-14T02:14:25;101076.78;;;1.42;96.16
25238;BME280;13185;50.872;5.306;2022-11-14T02:17:11;101081.25;;;1.40;96.15
25238;BME280;13185;50.872;5.306;2022-11-14T02:22:54;101065.50;;;1.34;95.86
25238;BME280;13185;50.872;5.306;2022-11-14T02:25:39;101070.84;;;1.32;95.81
25238;BME280;13185;50.872;5.306;2022-11-14T02:28:24;101063.03;;;1.28;96.05
25238;BME280;13185;50.872;5.306;2022-11-14T02:31:09;101060.44;;;1.25;96.00
25238;BME280;13185;50.872;5.306;2022-11-14T02:33:53;101057.88;;;1.22;95.92
25238;BME280;13185;50.872;5.306;2022-11-14T02:36:37;101054.50;;;1.17;96.00
25238;BME280;13185;50.872;5.306;2022-11-14T02:39:22;101038.69;;;1.13;96.11
25238;BME280;13185;50.872;5.306;2022-11-14T02:42:06;101041.28;;;1.17;96.31
25238;BME280;13185;50.872;5.306;2022-11-14T02:44:50;101036.00;;;1.17;96.58
25238;BME280;13185;50.872;5.306;2022-11-14T02:47:35;101043.91;;;1.17;97.09
25238;BME280;13185;50.872;5.306;2022-11-14T02:50:19;101036.03;;;1.13;97.22
25238;BME280;13185;50.872;5.306;2022-11-14T02:53:03;101043.09;;;1.13;96.93
25238;BME280;13185;50.872;5.306;2022-11-14T02:55:48;101041.41;;;1.10;96.91
25238;BME280;13185;50.872;5.306;2022-11-14T02:58:32;101039.66;;;1.09;96.72
25238;BME280;13185;50.872;5.306;2022-11-14T03:01:16;101041.44;;;1.09;96.57
25238;BME280;13185;50.872;5.306;2022-11-14T03:04:00;101045.91;;;1.07;96.72
25238;BME280;13185;50.872;5.306;2022-11-14T03:06:44;101033.59;;;1.06;96.77
25238;BME280;13185;50.872;5.306;2022-11-14T03:09:28;101032.75;;;1.04;96.83
25238;BME280;13185;50.872;5.306;2022-11-14T03:12:17;101029.22;;;1.03;96.93
25238;BME280;13185;50.872;5.306;2022-11-14T03:15:01;101031.06;;;1.01;96.65
25238;BME280;13185;50.872;5.306;2022-11-14T03:17:45;101026.72;;;0.99;96.45
25238;BME280;13185;50.872;5.306;2022-11-14T03:20:29;101023.28;;;0.95;96.51
25238;BME280;13185;50.872;5.306;2022-11-14T03:23:13;101034.75;;;0.93;96.59
25238;BME280;13185;50.872;5.306;2022-11-14T03:26:01;101027.75;;;0.92;96.57
25238;BME280;13185;50.872;5.306;2022-11-14T03:28:45;101033.06;;;0.90;96.60
25238;BME280;13185;50.872;5.306;2022-11-14T03:31:29;101026.97;;;0.88;96.11
25238;BME280;13185;50.872;5.306;2022-11-14T03:34:14;101032.28;;;0.86;96.52
25238;BME280;13185;50.872;5.306;2022-11-14T03:36:58;101028.81;;;0.84;96.19
25238;BME280;13185;50.872;5.306;2022-11-14T03:39:43;101029.72;;;0.82;96.33
25238;BME280;13185;50.872;5.306;2022-11-14T03:42:27;101027.97;;;0.81;96.24
25238;BME280;13185;50.872;5.306;2022-11-14T03:45:11;101024.50;;;0.79;96.33
25238;BME280;13185;50.872;5.306;2022-11-14T03:47:55;101026.38;;;0.75;96.28
25238;BME280;13185;50.872;5.306;2022-11-14T03:50:40;101013.22;;;0.72;96.23
25238;BME280;13185;50.872;5.306;2022-11-14T03:53:24;101021.13;;;0.72;96.42
25238;BME280;13185;50.872;5.306;2022-11-14T03:56:09;101024.63;;;0.73;96.69
25238;BME280;13185;50.872;5.306;2022-11-14T03:58:53;101020.28;;;0.70;96.70
25238;BME280;13185;50.872;5.306;2022-11-14T04:01:37;101027.34;;;0.70;96.62
25238;BME280;13185;50.872;5.306;2022-11-14T04:04:21;101027.38;;;0.68;96.74
25238;BME280;13185;50.872;5.306;2022-11-14T04:07:05;101023.06;;;0.66;96.74
25238;BME280;13185;50.872;5.306;2022-11-14T04:09:50;101013.44;;;0.63;96.84
25238;BME280;13185;50.872;5.306;2022-11-14T04:12:34;101017.88;;;0.60;97.03
25238;BME280;13185;50.872;5.306;2022-11-14T04:15:19;101014.38;;;0.59;97.11
25238;BME280;13185;50.872;5.306;2022-11-14T04:18:03;101010.88;;;0.58;96.91
25238;BME280;13185;50.872;5.306;2022-11-14T04:20:48;101007.44;;;0.55;97.13
25238;BME280;13185;50.872;5.306;2022-11-14T04:23:32;101007.50;;;0.52;97.36
25238;BME280;13185;50.872;5.306;2022-11-14T04:26:16;101006.63;;;0.51;97.44
25238;BME280;13185;50.872;5.306;2022-11-14T04:29:00;101010.16;;;0.50;97.24
25238;BME280;13185;50.872;5.306;2022-11-14T04:31:45;101008.44;;;0.49;97.49
25238;BME280;13185;50.872;5.306;2022-11-14T04:34:29;101000.59;;;0.46;97.30
25238;BME280;13185;50.872;5.306;2022-11-14T04:37:13;101003.25;;;0.45;97.59
25238;BME280;13185;50.872;5.306;2022-11-14T04:39:57;100994.53;;;0.41;97.53
25238;BME280;13185;50.872;5.306;2022-11-14T04:42:43;100990.19;;;0.39;97.74
25238;BME280;13185;50.872;5.306;2022-11-14T04:45:28;100980.53;;;0.38;97.73
25238;BME280;13185;50.872;5.306;2022-11-14T04:48:12;100976.16;;;0.37;97.75
25238;BME280;13185;50.872;5.306;2022-11-14T04:50:56;100971.81;;;0.34;97.93
25238;BME280;13185;50.872;5.306;2022-11-14T04:53:40;100968.31;;;0.34;98.08
25238;BME280;13185;50.872;5.306;2022-11-14T04:56:24;100965.72;;;0.31;97.89
25238;BME280;13185;50.872;5.306;2022-11-14T04:59:09;100967.53;;;0.28;97.87
25238;BME280;13185;50.872;5.306;2022-11-14T05:01:53;100965.75;;;0.29;97.94
25238;BME280;13185;50.872;5.306;2022-11-14T05:04:37;100968.44;;;0.27;98.17
25238;BME280;13185;50.872;5.306;2022-11-14T05:07:21;100962.28;;;0.27;97.94
25238;BME280;13185;50.872;5.306;2022-11-14T05:10:06;100963.16;;;0.27;97.85
25238;BME280;13185;50.872;5.306;2022-11-14T05:12:54;100962.25;;;0.28;98.08
25238;BME280;13185;50.872;5.306;2022-11-14T05:15:38;100958.75;;;0.28;97.88
25238;BME280;13185;50.872;5.306;2022-11-14T05:18:22;100953.47;;;0.28;97.96
25238;BME280;13185;50.872;5.306;2022-11-14T05:21:11;100946.47;;;0.27;98.00
25238;BME280;13185;50.872;5.306;2022-11-14T05:23:56;100947.41;;;0.24;98.06
25238;BME280;13185;50.872;5.306;2022-11-14T05:26:41;100946.50;;;0.25;97.96
25238;BME280;13185;50.872;5.306;2022-11-14T05:29:25;100943.88;;;0.25;98.15
25238;BME280;13185;50.872;5.306;2022-11-14T05:32:09;100943.81;;;0.27;98.22
25238;BME280;13185;50.872;5.306;2022-11-14T05:34:53;100939.47;;;0.26;98.15
25238;BME280;13185;50.872;5.306;2022-11-14T05:37:38;100942.13;;;0.24;98.03
25238;BME280;13185;50.872;5.306;2022-11-14T05:40:22;100934.25;;;0.23;97.96
25238;BME280;13185;50.872;5.306;2022-11-14T05:43:06;100929.88;;;0.22;97.74
25238;BME280;13185;50.872;5.306;2022-11-14T05:45:50;100936.94;;;0.20;97.63
25238;BME280;13185;50.872;5.306;2022-11-14T05:48:35;100936.09;;;0.18;98.00
25238;BME280;13185;50.872;5.306;2022-11-14T05:51:19;100937.84;;;0.19;98.04
25238;BME280;13185;50.872;5.306;2022-11-14T05:54:03;100937.84;;;0.19;98.09
25238;BME280;13185;50.872;5.306;2022-11-14T05:56:47;100933.50;;;0.16;97.81
25238;BME280;13185;50.872;5.306;2022-11-14T05:59:31;100935.31;;;0.14;97.86
25238;BME280;13185;50.872;5.306;2022-11-14T06:02:15;100937.13;;;0.12;97.76
25238;BME280;13185;50.872;5.306;2022-11-14T06:05:00;100937.19;;;0.08;97.88
25238;BME280;13185;50.872;5.306;2022-11-14T06:07:45;100938.13;;;0.05;98.11
25238;BME280;13185;50.872;5.306;2022-11-14T06:10:29;100938.13;;;0.05;98.46
25238;BME280;13185;50.872;5.306;2022-11-14T06:13:13;100939.03;;;0.04;98.47
25238;BME280;13185;50.872;5.306;2022-11-14T06:16:02;100938.25;;;0.01;98.62
25238;BME280;13185;50.872;5.306;2022-11-14T06:18:47;100946.16;;;0.01;98.75
25238;BME280;13185;50.872;5.306;2022-11-14T06:21:32;100938.25;;;-0.01;98.99
25238;BME280;13185;50.872;5.306;2022-11-14T06:24:15;100936.50;;;-0.02;99.09
25238;BME280;13185;50.872;5.306;2022-11-14T06:26:59;100938.28;;;-0.03;99.00
25238;BME280;13185;50.872;5.306;2022-11-14T06:29:44;100941.78;;;-0.02;99.02
25238;BME280;13185;50.872;5.306;2022-11-14T06:32:28;100949.69;;;-0.02;98.75
25238;BME280;13185;50.872;5.306;2022-11-14T06:35:12;100948.81;;;-0.03;98.74
25238;BME280;13185;50.872;5.306;2022-11-14T06:37:58;100945.31;;;-0.03;98.67
25238;BME280;13185;50.872;5.306;2022-11-14T06:40:42;100943.59;;;-0.04;98.46
25238;BME280;13185;50.872;5.306;2022-11-14T06:43:27;100948.84;;;-0.04;98.71
25238;BME280;13185;50.872;5.306;2022-11-14T06:46:13;100938.34;;;-0.06;98.49
25238;BME280;13185;50.872;5.306;2022-11-14T06:48:58;100947.13;;;-0.05;98.53
25238;BME280;13185;50.872;5.306;2022-11-14T06:51:42;100947.13;;;-0.05;98.60
25238;BME280;13185;50.872;5.306;2022-11-14T06:54:26;100945.38;;;-0.06;98.67
25238;BME280;13185;50.872;5.306;2022-11-14T06:57:10;100947.16;;;-0.07;98.70
25238;BME280;13185;50.872;5.306;2022-11-14T06:59:55;100955.94;;;-0.06;98.62
25238;BME280;13185;50.872;5.306;2022-11-14T07:02:39;100957.66;;;-0.05;98.51
25238;BME280;13185;50.872;5.306;2022-11-14T07:05:23;100958.53;;;-0.05;98.58
25238;BME280;13185;50.872;5.306;2022-11-14T07:08:07;100958.56;;;-0.06;98.51
25238;BME280;13185;50.872;5.306;2022-11-14T07:10:52;100972.63;;;-0.06;98.27
25238;BME280;13185;50.872;5.306;2022-11-14T07:13:37;100976.09;;;-0.04;98.56
25238;BME280;13185;50.872;5.306;2022-11-14T07:16:34;100980.50;;;-0.04;98.77
25238;BME280;13185;50.872;5.306;2022-11-14T07:19:18;100981.38;;;-0.04;98.91
25238;BME280;13185;50.872;5.306;2022-11-14T07:22:02;100975.19;;;-0.03;98.92
25238;BME280;13185;50.872;5.306;2022-11-14T07:24:47;100973.41;;;-0.02;99.17
25238;BME280;13185;50.872;5.306;2022-11-14T07:27:31;100960.19;;;-0.01;99.48
25238;BME280;13185;50.872;5.306;2022-11-14T07:30:15;100958.44;;;0.02;99.52
25238;BME280;13185;50.872;5.306;2022-11-14T07:32:59;100961.91;;;0.04;99.73
25238;BME280;13185;50.872;5.306;2022-11-14T07:35:43;100956.59;;;0.05;100.00
25238;BME280;13185;50.872;5.306;2022-11-14T07:38:29;100953.91;;;0.07;100.00
25238;BME280;13185;50.872;5.306;2022-11-14T07:41:15;100947.75;;;0.08;100.00
25238;BME280;13185;50.872;5.306;2022-11-14T07:43:59;100955.56;;;0.12;100.00
25238;BME280;13185;50.872;5.306;2022-11-14T07:46:43;100951.06;;;0.17;100.00
25238;BME280;13185;50.872;5.306;2022-11-14T07:49:27;100946.63;;;0.21;100.00
25238;BME280;13185;50.872;5.306;2022-11-14T07:52:12;100941.22;;;0.25;100.00
25238;BME280;13185;50.872;5.306;2022-11-14T07:54:56;100942.91;;;0.28;100.00
25238;BME280;13185;50.872;5.306;2022-11-14T07:57:40;100931.44;;;0.31;100.00
25238;BME280;13185;50.872;5.306;2022-11-14T08:00:24;100930.47;;;0.35;100.00
25238;BME280;13185;50.872;5.306;2022-11-14T08:03:09;100932.19;;;0.37;100.00
25238;BME280;13185;50.872;5.306;2022-11-14T08:06:07;100930.31;;;0.41;100.00
25238;BME280;13185;50.872;5.306;2022-11-14T08:08:51;100925.78;;;0.47;100.00
25238;BME280;13185;50.872;5.306;2022-11-14T08:11:36;100930.03;;;0.54;100.00
25238;BME280;13185;50.872;5.306;2022-11-14T08:14:32;100919.34;;;0.61;100.00
25238;BME280;13185;50.872;5.306;2022-11-14T08:17:16;100922.72;;;0.67;100.00
25238;BME280;13185;50.872;5.306;2022-11-14T08:20:01;100921.69;;;0.73;100.00
25238;BME280;13185;50.872;5.306;2022-11-14T08:22:45;100926.88;;;0.77;100.00
25238;BME280;13185;50.872;5.306;2022-11-14T08:25:30;100921.50;;;0.80;100.00
25238;BME280;13185;50.872;5.306;2022-11-14T08:28:14;100916.19;;;0.82;100.00
25238;BME280;13185;50.872;5.306;2022-11-14T08:31:03;100920.50;;;0.86;100.00
25238;BME280;13185;50.872;5.306;2022-11-14T08:33:47;100914.19;;;0.92;100.00
25238;BME280;13185;50.872;5.306;2022-11-14T08:36:33;100908.81;;;0.96;100.00
25238;BME280;13185;50.872;5.306;2022-11-14T08:39:17;100903.38;;;1.02;100.00
25238;BME280;13185;50.872;5.306;2022-11-14T08:42:00;100905.81;;;1.10;100.00
25238;BME280;13185;50.872;5.306;2022-11-14T08:44:45;100908.31;;;1.16;100.00
25238;BME280;13185;50.872;5.306;2022-11-14T08:47:29;100914.31;;;1.23;100.00
25238;BME280;13185;50.872;5.306;2022-11-14T08:50:13;100915.88;;;1.30;100.00
25238;BME280;13185;50.872;5.306;2022-11-14T08:52:57;100921.00;;;1.37;100.00
25238;BME280;13185;50.872;5.306;2022-11-14T08:55:45;100922.53;;;1.44;100.00
25238;BME280;13185;50.872;5.306;2022-11-14T08:58:30;100908.25;;;1.52;100.00
25238;BME280;13185;50.872;5.306;2022-11-14T09:01:14;100907.25;;;1.57;100.00
25238;BME280;13185;50.872;5.306;2022-11-14T09:03:59;100896.50;;;1.63;100.00
25238;BME280;13185;50.872;5.306;2022-11-14T09:06:43;100890.78;;;1.79;100.00
25238;BME280;13185;50.872;5.306;2022-11-14T09:09:29;100886.81;;;1.93;100.00
25238;BME280;13185;50.872;5.306;2022-11-14T09:12:12;100883.44;;;2.19;100.00
25238;BME280;13185;50.872;5.306;2022-11-14T09:14:56;100882.78;;;2.41;100.00
25238;BME280;13185;50.872;5.306;2022-11-14T09:17:40;100876.09;;;2.57;100.00
25238;BME280;13185;50.872;5.306;2022-11-14T09:20:25;100875.31;;;2.81;100.00
25238;BME280;13185;50.872;5.306;2022-11-14T09:23:10;100885.09;;;3.06;100.00
25238;BME280;13185;50.872;5.306;2022-11-14T09:25:54;100875.66;;;3.48;100.00
25238;BME280;13185;50.872;5.306;2022-11-14T09:28:39;100882.91;;;3.68;100.00
25238;BME280;13185;50.872;5.306;2022-11-14T09:31:24;100875.00;;;3.67;100.00
25238;BME280;13185;50.872;5.306;2022-11-14T09:34:08;100877.53;;;3.70;100.00
25238;BME280;13185;50.872;5.306;2022-11-14T09:36:52;100885.00;;;3.84;100.00
25238;BME280;13185;50.872;5.306;2022-11-14T09:39:36;100878.34;;;3.97;100.00
25238;BME280;13185;50.872;5.306;2022-11-14T09:45:34;100881.56;;;4.28;100.00
25238;BME280;13185;50.872;5.306;2022-11-14T09:48:22;100880.22;;;4.40;100.00
25238;BME280;13185;50.872;5.306;2022-11-14T09:51:19;100871.03;;;4.49;100.00
25238;BME280;13185;50.872;5.306;2022-11-14T09:54:21;100875.22;;;4.54;100.00
25238;BME280;13185;50.872;5.306;2022-11-14T09:57:13;100872.50;;;4.56;100.00
25238;BME280;13185;50.872;5.306;2022-11-14T09:59:58;100878.66;;;4.56;100.00
25238;BME280;13185;50.872;5.306;2022-11-14T10:03:10;100882.75;;;4.65;100.00
25238;BME280;13185;50.872;5.306;2022-11-14T10:06:22;100889.50;;;4.74;100.00
25238;BME280;13185;50.872;5.306;2022-11-14T10:12:23;100873.06;;;4.86;100.00
25238;BME280;13185;50.872;5.306;2022-11-14T10:15:23;100859.22;;;4.78;100.00
25238;BME280;13185;50.872;5.306;2022-11-14T10:18:34;100854.97;;;4.74;100.00
25238;BME280;13185;50.872;5.306;2022-11-14T10:21:45;100862.88;;;4.75;100.00
25238;BME280;13185;50.872;5.306;2022-11-14T10:24:54;100871.97;;;4.91;100.00
25238;BME280;13185;50.872;5.306;2022-11-14T10:30:38;100878.50;;;5.25;100.00
25238;BME280;13185;50.872;5.306;2022-11-14T10:39:24;100877.03;;;5.18;100.00
25238;BME280;13185;50.872;5.306;2022-11-14T10:42:13;100875.88;;;5.45;100.00
25238;BME280;13185;50.872;5.306;2022-11-14T10:45:12;100867.41;;;5.76;100.00
25238;BME280;13185;50.872;5.306;2022-11-14T10:48:06;100859.19;;;6.01;100.00
25238;BME280;13185;50.872;5.306;2022-11-14T10:50:55;100855.69;;;6.20;100.00
25238;BME280;13185;50.872;5.306;2022-11-14T10:56:33;100863.00;;;6.33;100.00
25238;BME280;13185;50.872;5.306;2022-11-14T10:59:18;100860.06;;;6.58;100.00
25238;BME280;13185;50.872;5.306;2022-11-14T11:02:02;100851.41;;;6.53;100.00
25238;BME280;13185;50.872;5.306;2022-11-14T11:04:46;100856.25;;;6.45;100.00
25238;BME280;13185;50.872;5.306;2022-11-14T11:07:31;100856.91;;;6.31;100.00
25238;BME280;13185;50.872;5.306;2022-11-14T11:10:38;100857.59;;;6.35;100.00
25238;BME280;13185;50.872;5.306;2022-11-14T11:13:53;100859.38;;;6.36;100.00
25238;BME280;13185;50.872;5.306;2022-11-14T11:16:40;100865.59;;;6.35;100.00
25238;BME280;13185;50.872;5.306;2022-11-14T11:19:26;100860.34;;;6.33;100.00
25238;BME280;13185;50.872;5.306;2022-11-14T11:25:25;100842.78;;;6.48;100.00
25238;BME280;13185;50.872;5.306;2022-11-14T11:30:59;100844.00;;;6.41;100.00
25238;BME280;13185;50.872;5.306;2022-11-14T11:33:44;100837.97;;;6.74;100.00
25238;BME280;13185;50.872;5.306;2022-11-14T11:36:31;100835.47;;;6.71;99.63
25238;BME280;13185;50.872;5.306;2022-11-14T11:39:27;100835.72;;;6.83;99.90
25238;BME280;13185;50.872;5.306;2022-11-14T11:42:17;100829.47;;;7.02;100.00
25238;BME280;13185;50.872;5.306;2022-11-14T11:45:07;100822.50;;;7.16;100.00
25238;BME280;13185;50.872;5.306;2022-11-14T11:48:03;100822.19;;;7.22;100.00
25238;BME280;13185;50.872;5.306;2022-11-14T11:50:51;100818.03;;;7.34;100.00
25238;BME280;13185;50.872;5.306;2022-11-14T11:53:58;100816.53;;;7.29;99.33
25238;BME280;13185;50.872;5.306;2022-11-14T11:56:47;100811.66;;;7.37;100.00
25238;BME280;13185;50.872;5.306;2022-11-14T11:59:41;100819.50;;;7.40;100.00
25238;BME280;13185;50.872;5.306;2022-11-14T12:02:28;100826.97;;;7.50;100.00
25238;BME280;13185;50.872;5.306;2022-11-14T12:05:30;100822.16;;;7.57;100.00
25238;BME280;13185;50.872;5.306;2022-11-14T12:11:12;100818.41;;;7.44;96.08
25238;BME280;13185;50.872;5.306;2022-11-14T12:29:55;100809.34;;;7.97;98.23
25238;BME280;13185;50.872;5.306;2022-11-14T12:32:59;100803.75;;;8.17;99.73
25238;BME280;13185;50.872;5.306;2022-11-14T12:35:52;100803.84;;;8.31;96.64
25238;BME280;13185;50.872;5.306;2022-11-14T12:38:44;100796.59;;;8.33;94.98
25238;BME280;13185;50.872;5.306;2022-11-14T12:41:32;100794.00;;;8.32;92.89
25238;BME280;13185;50.872;5.306;2022-11-14T12:44:18;100797.25;;;8.38;94.19
25238;BME280;13185;50.872;5.306;2022-11-14T12:47:12;100791.19;;;8.51;93.74
25238;BME280;13185;50.872;5.306;2022-11-14T12:49:59;100789.03;;;8.42;91.83
25238;BME280;13185;50.872;5.306;2022-11-14T12:58:35;100767.91;;;8.21;91.50
25238;BME280;13185;50.872;5.306;2022-11-14T13:01:29;100771.69;;;8.17;90.90
25238;BME280;13185;50.872;5.306;2022-11-14T13:10:37;100755.84;;;8.14;90.77
25238;BME280;13185;50.872;5.306;2022-11-14T13:13:22;100748.94;;;8.10;90.74
25238;BME280;13185;50.872;5.306;2022-11-14T13:16:29;100748.34;;;8.21;90.63
25238;BME280;13185;50.872;5.306;2022-11-14T13:19:33;100735.41;;;8.29;91.47
25238;BME280;13185;50.872;5.306;2022-11-14T13:22:39;100731.09;;;8.42;91.33
25238;BME280;13185;50.872;5.306;2022-11-14T13:25:24;100726.38;;;8.47;90.54
25238;BME280;13185;50.872;5.306;2022-11-14T13:31:45;100722.31;;;8.40;89.37
25238;BME280;13185;50.872;5.306;2022-11-14T13:40:33;100719.28;;;8.30;87.77
25238;BME280;13185;50.872;5.306;2022-11-14T13:49:59;100705.44;;;8.39;88.03
25238;BME280;13185;50.872;5.306;2022-11-14T13:52:47;100706.56;;;8.35;87.59
25238;BME280;13185;50.872;5.306;2022-11-14T14:11:06;100694.00;;;8.52;87.67
25238;BME280;13185;50.872;5.306;2022-11-14T14:14:11;100700.06;;;8.55;87.46
25238;BME280;13185;50.872;5.306;2022-11-14T14:17:05;100704.63;;;8.53;86.83
25238;BME280;13185;50.872;5.306;2022-11-14T14:20:30;100703.09;;;8.49;87.00
25238;BME280;13185;50.872;5.306;2022-11-14T14:29:45;100695.38;;;8.13;88.22
25238;BME280;13185;50.872;5.306;2022-11-14T14:32:35;100699.31;;;8.06;88.95
25238;BME280;13185;50.872;5.306;2022-11-14T14:35:36;100701.31;;;8.02;89.64
25238;BME280;13185;50.872;5.306;2022-11-14T14:38:24;100696.84;;;8.03;89.73
25238;BME280;13185;50.872;5.306;2022-11-14T14:41:13;100702.09;;;8.04;90.30
25238;BME280;13185;50.872;5.306;2022-11-14T14:44:00;100703.19;;;8.00;90.21
25238;BME280;13185;50.872;5.306;2022-11-14T14:46:44;100696.41;;;7.95;90.27
25238;BME280;13185;50.872;5.306;2022-11-14T14:49:36;100690.34;;;7.91;90.49
25238;BME280;13185;50.872;5.306;2022-11-14T14:52:35;100693.81;;;7.93;91.55
25238;BME280;13185;50.872;5.306;2022-11-14T14:55:23;100702.94;;;7.89;91.71
25238;BME280;13185;50.872;5.306;2022-11-14T14:58:26;100684.00;;;7.94;94.20
25238;BME280;13185;50.872;5.306;2022-11-14T15:01:13;100695.63;;;7.93;92.04
25238;BME280;13185;50.872;5.306;2022-11-14T15:04:02;100692.34;;;7.88;91.37
25238;BME280;13185;50.872;5.306;2022-11-14T15:06:48;100685.47;;;7.84;91.32
25238;BME280;13185;50.872;5.306;2022-11-14T15:09:32;100674.78;;;7.84;91.54
25238;BME280;13185;50.872;5.306;2022-11-14T15:12:16;100681.75;;;7.86;92.30
25238;BME280;13185;50.872;5.306;2022-11-14T15:15:01;100682.78;;;7.84;92.67
25238;BME280;13185;50.872;5.306;2022-11-14T15:17:47;100672.97;;;7.84;92.66
25238;BME280;13185;50.872;5.306;2022-11-14T15:20:33;100677.53;;;7.82;92.73
25238;BME280;13185;50.872;5.306;2022-11-14T15:23:19;100673.94;;;7.83;92.76
25238;BME280;13185;50.872;5.306;2022-11-14T15:26:10;100674.03;;;7.81;92.67
25238;BME280;13185;50.872;5.306;2022-11-14T15:31:59;100664.19;;;7.82;93.39
25238;BME280;13185;50.872;5.306;2022-11-14T15:35:08;100661.59;;;7.80;93.71
25238;BME280;13185;50.872;5.306;2022-11-14T15:41:25;100665.72;;;7.86;96.39
25238;BME280;13185;50.872;5.306;2022-11-14T15:44:29;100661.88;;;7.76;93.93
25238;BME280;13185;50.872;5.306;2022-11-14T15:47:17;100663.16;;;7.69;94.18
25238;BME280;13185;50.872;5.306;2022-11-14T15:50:21;100659.16;;;7.60;93.68
25238;BME280;13185;50.872;5.306;2022-11-14T15:53:24;100665.03;;;7.51;93.81
25238;BME280;13185;50.872;5.306;2022-11-14T15:56:10;100660.03;;;7.45;94.04
25238;BME280;13185;50.872;5.306;2022-11-14T15:58:55;100655.88;;;7.39;94.11
25238;BME280;13185;50.872;5.306;2022-11-14T16:01:40;100658.72;;;7.36;94.18
25238;BME280;13185;50.872;5.306;2022-11-14T16:04:33;100653.66;;;7.32;94.32
25238;BME280;13185;50.872;5.306;2022-11-14T16:07:19;100656.66;;;7.26;94.44
25238;BME280;13185;50.872;5.306;2022-11-14T16:10:03;100664.09;;;7.19;94.61
25238;BME280;13185;50.872;5.306;2022-11-14T16:12:49;100655.59;;;7.12;94.86
25238;BME280;13185;50.872;5.306;2022-11-14T16:15:33;100658.47;;;7.08;94.95
25238;BME280;13185;50.872;5.306;2022-11-14T16:18:18;100649.13;;;7.01;95.08
25238;BME280;13185;50.872;5.306;2022-11-14T16:21:02;100641.50;;;6.93;95.18
25238;BME280;13185;50.872;5.306;2022-11-14T16:23:47;100648.00;;;6.87;95.33
25238;BME280;13185;50.872;5.306;2022-11-14T16:26:31;100643.03;;;6.81;95.60